sensor_id;sensor_type;location;lat;lon;timestamp;temperature;humidity
15815;DHT22;8008;50.024;8.172;2023-02-01T04:03:01;6.00;99.90
15815;DHT22;8008;50.024;8.172;2023-02-01T04:05:30;6.10;99.90
15815;DHT22;8008;50.024;8.172;2023-02-01T04:08:02;6.10;99.90
15815;DHT22;8008;50.024;8.172;2023-02-01T04:10:31;6.20;99.90
15815;DHT22;8008;50.024;8.172;2023-02-01T04:12:59;6.20;99.90
15815;DHT22;8008;50.024;8.172;2023-02-01T04:15:27;6.20;99.90
15815;DHT22;8008;50.024;8.172;2023-02-01T04:17:55;6.10;99.90
15815;DHT22;8008;50.024;8.172;2023-02-01T04:20:24;6.20;99.90
15815;DHT22;8008;50.024;8.172;2023-02-01T04:22:52;6.10;99.90
15815;DHT22;8008;50.024;8.172;2023-02-01T04:25:20;6.00;99.90
15815;DHT22;8008;50.024;8.172;2023-02-01T04:27:48;6.00;99.90
15815;DHT22;8008;50.024;8.172;2023-02-01T04:30:16;6.10;99.90
15815;DHT22;8008;50.024;8.172;2023-02-01T04:32:45;6.00;99.90
15815;DHT22;8008;50.024;8.172;2023-02-01T04:35:13;5.90;99.90
15815;DHT22;8008;50.024;8.172;2023-02-01T04:37:42;5.80;99.90
15815;DHT22;8008;50.024;8.172;2023-02-01T04:40:11;5.80;99.90
15815;DHT22;8008;50.024;8.172;2023-02-01T04:42:39;5.80;99.90
15815;DHT22;8008;50.024;8.172;2023-02-01T04:45:07;5.80;99.90
15815;DHT22;8008;50.024;8.172;2023-02-01T04:47:35;5.90;99.90
15815;DHT22;8008;50.024;8.172;2023-02-01T04:50:04;5.90;99.90
15815;DHT22;8008;50.024;8.172;2023-02-01T04:52:33;5.90;99.90
15815;DHT22;8008;50.024;8.172;2023-02-01T04:55:03;5.90;99.90
15815;DHT22;8008;50.024;8.172;2023-02-01T04:57:31;5.90;99.90
15815;DHT22;8008;50.024;8.172;2023-02-01T04:59:59;6.00;99.90
15815;DHT22;8008;50.024;8.172;2023-02-01T05:02:27;6.00;99.90
15815;DHT22;8008;50.024;8.172;2023-02-01T05:04:54;6.00;99.90
15815;DHT22;8008;50.024;8.172;2023-02-01T05:07:22;6.00;99.90
15815;DHT22;8008;50.024;8.172;2023-02-01T05:09:50;6.00;99.90
15815;DHT22;8008;50.024;8.172;2023-02-01T05:12:20;6.00;99.90
15815;DHT22;8008;50.024;8.172;2023-02-01T05:15:06;6.10;99.90
15815;DHT22;8008;50.024;8.172;2023-02-01T05:17:34;6.10;99.90
15815;DHT22;8008;50.024;8.172;2023-02-01T05:20:02;6.10;99.90
15815;DHT22;8008;50.024;8.172;2023-02-01T05:22:30;6.10;99.90
15815;DHT22;8008;50.024;8.172;2023-02-01T05:24:58;6.10;99.90
15815;DHT22;8008;50.024;8.172;2023-02-01T05:27:28;6.10;99.90
15815;DHT22;8008;50.024;8.172;2023-02-01T05:29:56;6.10;99.90
15815;DHT22;8008;50.024;8.172;2023-02-01T05:32:24;6.10;99.90
15815;DHT22;8008;50.024;8.172;2023-02-01T05:34:52;6.10;99.90
15815;DHT22;8008;50.024;8.172;2023-02-01T05:37:20;6.20;99.90
15815;DHT22;8008;50.024;8.172;2023-02-01T05:39:48;6.10;99.90
15815;DHT22;8008;50.024;8.172;2023-02-01T05:42:16;6.10;99.90
15815;DHT22;8008;50.024;8.172;2023-02-01T05:44:45;6.10;99.90
15815;DHT22;8008;50.024;8.172;2023-02-01T05:47:13;6.10;99.90
15815;DHT22;8008;50.024;8.172;2023-02-01T05:49:41;6.10;99.90
15815;DHT22;8008;50.024;8.172;2023-02-01T05:52:08;6.10;99.90
15815;DHT22;8008;50.024;8.172;2023-02-01T05:54:37;6.00;99.90
15815;DHT22;8008;50.024;8.172;2023-02-01T05:57:05;6.00;99.90
15815;DHT22;8008;50.024;8.172;2023-02-01T05:59:33;6.00;99.90
15815;DHT22;8008;50.024;8.172;2023-02-01T06:02:02;6.00;99.90
15815;DHT22;8008;50.024;8.172;2023-02-01T06:04:30;6.00;99.90
15815;DHT22;8008;50.024;8.172;2023-02-01T06:06:58;6.00;99.90
15815;DHT22;8008;50.024;8.172;2023-02-01T06:09:26;6.00;99.90
15815;DHT22;8008;50.024;8.172;2023-02-01T06:11:54;5.90;99.90
15815;DHT22;8008;50.024;8.172;2023-02-01T06:14:22;5.90;99.90
15815;DHT22;8008;50.024;8.172;2023-02-01T06:16:51;5.90;99.90
15815;DHT22;8008;50.024;8.172;2023-02-01T06:19:20;6.00;99.90
15815;DHT22;8008;50.024;8.172;2023-02-01T06:21:48;5.90;99.90
15815;DHT22;8008;50.024;8.172;2023-02-01T06:24:16;5.90;99.90
15815;DHT22;8008;50.024;8.172;2023-02-01T06:26:44;5.90;99.90
15815;DHT22;8008;50.024;8.172;2023-02-01T06:29:12;5.90;99.90
15815;DHT22;8008;50.024;8.172;2023-02-01T06:31:40;5.90;99.90
15815;DHT22;8008;50.024;8.172;2023-02-01T06:34:09;5.90;99.90
15815;DHT22;8008;50.024;8.172;2023-02-01T06:36:38;5.90;99.90
15815;DHT22;8008;50.024;8.172;2023-02-01T06:39:06;5.90;99.90
15815;DHT22;8008;50.024;8.172;2023-02-01T06:41:34;5.80;99.90
15815;DHT22;8008;50.024;8.172;2023-02-01T06:44:02;5.80;99.90
15815;DHT22;8008;50.024;8.172;2023-02-01T06:46:30;5.70;99.90
15815;DHT22;8008;50.024;8.172;2023-02-01T06:48:58;5.60;99.90
15815;DHT22;8008;50.024;8.172;2023-02-01T06:51:27;5.50;99.90
15815;DHT22;8008;50.024;8.172;2023-02-01T06:53:57;5.40;99.90
15815;DHT22;8008;50.024;8.172;2023-02-01T06:56:25;5.40;99.90
15815;DHT22;8008;50.024;8.172;2023-02-01T06:58:53;5.30;99.90
15815;DHT22;8008;50.024;8.172;2023-02-01T07:01:21;5.30;99.90
15815;DHT22;8008;50.024;8.172;2023-02-01T07:03:49;5.30;99.90
15815;DHT22;8008;50.024;8.172;2023-02-01T07:06:18;5.30;99.90
15815;DHT22;8008;50.024;8.172;2023-02-01T07:08:46;5.20;99.90
15815;DHT22;8008;50.024;8.172;2023-02-01T07:11:16;5.30;99.90
15815;DHT22;8008;50.024;8.172;2023-02-01T07:13:45;5.20;99.90
15815;DHT22;8008;50.024;8.172;2023-02-01T07:16:15;5.20;99.90
15815;DHT22;8008;50.024;8.172;2023-02-01T07:18:43;5.20;99.90
15815;DHT22;8008;50.024;8.172;2023-02-01T07:21:12;5.20;99.90
15815;DHT22;8008;50.024;8.172;2023-02-01T07:23:40;5.20;99.90
15815;DHT22;8008;50.024;8.172;2023-02-01T07:26:10;5.20;99.90
15815;DHT22;8008;50.024;8.172;2023-02-01T07:28:41;5.20;99.90
15815;DHT22;8008;50.024;8.172;2023-02-01T07:31:10;5.30;99.90
15815;DHT22;8008;50.024;8.172;2023-02-01T07:33:38;5.30;99.90
15815;DHT22;8008;50.024;8.172;2023-02-01T07:36:10;5.30;99.90
15815;DHT22;8008;50.024;8.172;2023-02-01T07:38:38;5.30;99.90
15815;DHT22;8008;50.024;8.172;2023-02-01T07:41:06;5.20;99.90
15815;DHT22;8008;50.024;8.172;2023-02-01T07:43:35;5.30;99.90
15815;DHT22;8008;50.024;8.172;2023-02-01T07:46:05;5.20;99.90
15815;DHT22;8008;50.024;8.172;2023-02-01T07:48:33;5.30;99.90
15815;DHT22;8008;50.024;8.172;2023-02-01T07:51:03;5.30;99.90
15815;DHT22;8008;50.024;8.172;2023-02-01T07:53:33;5.30;99.90
15815;DHT22;8008;50.024;8.172;2023-02-01T07:56:01;5.30;99.90
15815;DHT22;8008;50.024;8.172;2023-02-01T07:58:30;5.30;99.90
15815;DHT22;8008;50.024;8.172;2023-02-01T08:00:58;5.30;99.90
15815;DHT22;8008;50.024;8.172;2023-02-01T08:03:45;5.40;99.90
15815;DHT22;8008;50.024;8.172;2023-02-01T08:06:13;5.40;99.90
15815;DHT22;8008;50.024;8.172;2023-02-01T08:08:41;5.40;99.90
15815;DHT22;8008;50.024;8.172;2023-02-01T08:11:11;5.50;99.90
15815;DHT22;8008;50.024;8.172;2023-02-01T08:13:39;5.50;99.90
15815;DHT22;8008;50.024;8.172;2023-02-01T08:16:09;5.60;99.90
15815;DHT22;8008;50.024;8.172;2023-02-01T08:18:38;5.60;99.90
15815;DHT22;8008;50.024;8.172;2023-02-01T08:21:09;5.60;99.90
15815;DHT22;8008;50.024;8.172;2023-02-01T08:23:38;5.60;99.90
15815;DHT22;8008;50.024;8.172;2023-02-01T08:26:08;5.60;99.90
15815;DHT22;8008;50.024;8.172;2023-02-01T08:28:36;5.70;99.90
15815;DHT22;8008;50.024;8.172;2023-02-01T08:31:05;5.70;99.90
15815;DHT22;8008;50.024;8.172;2023-02-01T08:33:34;5.80;99.90
15815;DHT22;8008;50.024;8.172;2023-02-01T08:36:04;5.80;99.90
15815;DHT22;8008;50.024;8.172;2023-02-01T08:38:34;5.90;99.90
15815;DHT22;8008;50.024;8.172;2023-02-01T08:41:06;5.90;99.90
15815;DHT22;8008;50.024;8.172;2023-02-01T08:43:35;5.90;99.90
15815;DHT22;8008;50.024;8.172;2023-02-01T08:46:04;6.00;99.90
15815;DHT22;8008;50.024;8.172;2023-02-01T08:48:34;6.00;99.90
15815;DHT22;8008;50.024;8.172;2023-02-01T08:51:03;6.00;99.90
15815;DHT22;8008;50.024;8.172;2023-02-01T08:53:33;6.00;99.90
15815;DHT22;8008;50.024;8.172;2023-02-01T08:56:01;6.10;99.90
15815;DHT22;8008;50.024;8.172;2023-02-01T08:58:29;6.10;99.90
15815;DHT22;8008;50.024;8.172;2023-02-01T09:00:57;6.20;99.90
15815;DHT22;8008;50.024;8.172;2023-02-01T09:03:25;6.20;99.90
15815;DHT22;8008;50.024;8.172;2023-02-01T09:05:57;6.20;99.90
15815;DHT22;8008;50.024;8.172;2023-02-01T09:08:26;6.20;99.90
15815;DHT22;8008;50.024;8.172;2023-02-01T09:10:59;6.20;99.90
15815;DHT22;8008;50.024;8.172;2023-02-01T09:13:29;6.20;99.90
15815;DHT22;8008;50.024;8.172;2023-02-01T09:15:57;6.20;99.90
15815;DHT22;8008;50.024;8.172;2023-02-01T09:18:26;6.30;99.90
15815;DHT22;8008;50.024;8.172;2023-02-01T09:20:54;6.30;99.90
15815;DHT22;8008;50.024;8.172;2023-02-01T09:23:22;6.30;99.90
15815;DHT22;8008;50.024;8.172;2023-02-01T09:25:50;6.30;99.90
15815;DHT22;8008;50.024;8.172;2023-02-01T09:28:20;6.40;99.90
15815;DHT22;8008;50.024;8.172;2023-02-01T09:30:47;6.40;99.90
15815;DHT22;8008;50.024;8.172;2023-02-01T09:33:15;6.40;99.90
15815;DHT22;8008;50.024;8.172;2023-02-01T09:35:44;6.40;99.90
15815;DHT22;8008;50.024;8.172;2023-02-01T09:38:12;6.40;99.90
15815;DHT22;8008;50.024;8.172;2023-02-01T09:40:42;6.40;99.90
15815;DHT22;8008;50.024;8.172;2023-02-01T09:43:24;6.40;99.90
15815;DHT22;8008;50.024;8.172;2023-02-01T09:46:02;6.40;99.90
15815;DHT22;8008;50.024;8.172;2023-02-01T09:48:36;6.40;99.90
15815;DHT22;8008;50.024;8.172;2023-02-01T09:51:12;6.40;99.90
15815;DHT22;8008;50.024;8.172;2023-02-01T09:53:43;6.40;99.90
15815;DHT22;8008;50.024;8.172;2023-02-01T09:56:14;6.50;99.90
15815;DHT22;8008;50.024;8.172;2023-02-01T09:58:47;6.50;99.90
15815;DHT22;8008;50.024;8.172;2023-02-01T10:01:20;6.50;99.90
15815;DHT22;8008;50.024;8.172;2023-02-01T10:03:49;6.50;99.90
15815;DHT22;8008;50.024;8.172;2023-02-01T10:06:30;6.50;99.90
15815;DHT22;8008;50.024;8.172;2023-02-01T10:09:36;6.60;99.90
15815;DHT22;8008;50.024;8.172;2023-02-01T10:12:29;6.60;99.90
15815;DHT22;8008;50.024;8.172;2023-02-01T10:15:15;6.60;99.90
15815;DHT22;8008;50.024;8.172;2023-02-01T10:17:55;6.60;99.90
15815;DHT22;8008;50.024;8.172;2023-02-01T10:20:32;6.70;99.90
15815;DHT22;8008;50.024;8.172;2023-02-01T10:23:15;6.60;99.90
15815;DHT22;8008;50.024;8.172;2023-02-01T10:26:04;6.60;99.90
15815;DHT22;8008;50.024;8.172;2023-02-01T10:28:34;6.60;99.90
15815;DHT22;8008;50.024;8.172;2023-02-01T10:31:08;6.60;99.90
15815;DHT22;8008;50.024;8.172;2023-02-01T10:33:39;6.70;99.90
15815;DHT22;8008;50.024;8.172;2023-02-01T10:36:15;6.70;99.90
15815;DHT22;8008;50.024;8.172;2023-02-01T10:38:45;6.70;99.90
15815;DHT22;8008;50.024;8.172;2023-02-01T10:41:15;6.70;99.90
15815;DHT22;8008;50.024;8.172;2023-02-01T10:43:46;6.70;99.90
15815;DHT22;8008;50.024;8.172;2023-02-01T10:46:17;6.70;99.90
15815;DHT22;8008;50.024;8.172;2023-02-01T10:48:46;6.70;99.90
15815;DHT22;8008;50.024;8.172;2023-02-01T10:51:19;6.70;99.90
15815;DHT22;8008;50.024;8.172;2023-02-01T10:53:52;6.70;99.90
15815;DHT22;8008;50.024;8.172;2023-02-01T10:56:23;6.70;99.90
15815;DHT22;8008;50.024;8.172;2023-02-01T10:58:58;6.70;99.90
15815;DHT22;8008;50.024;8.172;2023-02-01T11:01:30;6.70;99.90
15815;DHT22;8008;50.024;8.172;2023-02-01T11:04:01;6.70;99.90
15815;DHT22;8008;50.024;8.172;2023-02-01T11:06:31;6.70;99.90
15815;DHT22;8008;50.024;8.172;2023-02-01T11:09:09;6.70;99.90
15815;DHT22;8008;50.024;8.172;2023-02-01T11:11:54;6.70;99.90
15815;DHT22;8008;50.024;8.172;2023-02-01T11:14:30;6.70;99.90
15815;DHT22;8008;50.024;8.172;2023-02-01T11:17:16;6.70;99.90
15815;DHT22;8008;50.024;8.172;2023-02-01T11:19:46;6.70;99.90
15815;DHT22;8008;50.024;8.172;2023-02-01T11:22:14;6.70;99.90
15815;DHT22;8008;50.024;8.172;2023-02-01T11:24:45;6.70;99.90
15815;DHT22;8008;50.024;8.172;2023-02-01T11:27:17;6.80;99.90
15815;DHT22;8008;50.024;8.172;2023-02-01T11:29:56;6.80;99.90
15815;DHT22;8008;50.024;8.172;2023-02-01T11:32:27;6.80;99.90
15815;DHT22;8008;50.024;8.172;2023-02-01T11:34:59;6.80;99.90
15815;DHT22;8008;50.024;8.172;2023-02-01T11:37:30;6.80;99.90
15815;DHT22;8008;50.024;8.172;2023-02-01T11:40:00;6.80;99.90
15815;DHT22;8008;50.024;8.172;2023-02-01T11:42:29;6.80;99.90
15815;DHT22;8008;50.024;8.172;2023-02-01T11:45:17;6.80;99.90
15815;DHT22;8008;50.024;8.172;2023-02-01T11:47:46;6.80;99.90
15815;DHT22;8008;50.024;8.172;2023-02-01T11:50:24;6.80;99.90
15815;DHT22;8008;50.024;8.172;2023-02-01T11:53:03;6.80;99.90
15815;DHT22;8008;50.024;8.172;2023-02-01T11:55:48;6.80;99.90
15815;DHT22;8008;50.024;8.172;2023-02-01T11:58:26;6.80;99.90
15815;DHT22;8008;50.024;8.172;2023-02-01T12:01:11;6.80;99.90
15815;DHT22;8008;50.024;8.172;2023-02-01T12:04:04;6.80;99.90
15815;DHT22;8008;50.024;8.172;2023-02-01T12:06:49;6.80;99.90
15815;DHT22;8008;50.024;8.172;2023-02-01T12:09:34;6.80;99.90
15815;DHT22;8008;50.024;8.172;2023-02-01T12:12:10;6.80;99.90
15815;DHT22;8008;50.024;8.172;2023-02-01T12:14:54;6.90;99.90
15815;DHT22;8008;50.024;8.172;2023-02-01T12:17:59;6.90;99.90
15815;DHT22;8008;50.024;8.172;2023-02-01T12:20:56;6.90;99.90
15815;DHT22;8008;50.024;8.172;2023-02-01T12:23:39;7.00;99.90
15815;DHT22;8008;50.024;8.172;2023-02-01T12:26:24;7.00;99.90
15815;DHT22;8008;50.024;8.172;2023-02-01T12:29:11;7.00;99.90
15815;DHT22;8008;50.024;8.172;2023-02-01T12:31:53;7.00;99.90
15815;DHT22;8008;50.024;8.172;2023-02-01T12:34:40;7.00;99.90
15815;DHT22;8008;50.024;8.172;2023-02-01T12:37:23;7.10;99.90
15815;DHT22;8008;50.024;8.172;2023-02-01T12:40:01;7.10;99.90
15815;DHT22;8008;50.024;8.172;2023-02-01T12:42:32;7.10;99.90
15815;DHT22;8008;50.024;8.172;2023-02-01T12:45:12;7.10;99.90
15815;DHT22;8008;50.024;8.172;2023-02-01T12:47:45;7.10;99.90
15815;DHT22;8008;50.024;8.172;2023-02-01T12:50:18;7.10;99.90
15815;DHT22;8008;50.024;8.172;2023-02-01T12:52:52;7.20;99.90
15815;DHT22;8008;50.024;8.172;2023-02-01T12:55:22;7.20;99.90
15815;DHT22;8008;50.024;8.172;2023-02-01T12:57:53;7.20;99.90
15815;DHT22;8008;50.024;8.172;2023-02-01T13:00:27;7.30;99.90
15815;DHT22;8008;50.024;8.172;2023-02-01T13:03:05;7.30;99.90
15815;DHT22;8008;50.024;8.172;2023-02-01T13:05:44;7.30;99.90
15815;DHT22;8008;50.024;8.172;2023-02-01T13:08:17;7.30;99.90
15815;DHT22;8008;50.024;8.172;2023-02-01T13:10:53;7.30;99.90
15815;DHT22;8008;50.024;8.172;2023-02-01T13:13:28;7.30;99.90
15815;DHT22;8008;50.024;8.172;2023-02-01T13:16:05;7.40;99.90
15815;DHT22;8008;50.024;8.172;2023-02-01T13:18:37;7.40;99.90
15815;DHT22;8008;50.024;8.172;2023-02-01T13:21:08;7.40;99.90
15815;DHT22;8008;50.024;8.172;2023-02-01T13:23:40;7.40;99.90
15815;DHT22;8008;50.024;8.172;2023-02-01T13:26:08;7.40;99.90
15815;DHT22;8008;50.024;8.172;2023-02-01T13:28:40;7.50;99.90
15815;DHT22;8008;50.024;8.172;2023-02-01T13:31:31;7.50;99.90
15815;DHT22;8008;50.024;8.172;2023-02-01T13:34:36;7.60;99.90
15815;DHT22;8008;50.024;8.172;2023-02-01T13:37:21;7.60;99.90
15815;DHT22;8008;50.024;8.172;2023-02-01T13:40:05;7.70;99.90
15815;DHT22;8008;50.024;8.172;2023-02-01T13:42:45;7.80;99.90
15815;DHT22;8008;50.024;8.172;2023-02-01T13:45:16;7.80;99.90
15815;DHT22;8008;50.024;8.172;2023-02-01T13:47:47;7.90;99.90
15815;DHT22;8008;50.024;8.172;2023-02-01T13:50:23;7.90;99.90
15815;DHT22;8008;50.024;8.172;2023-02-01T13:52:54;7.90;99.90
15815;DHT22;8008;50.024;8.172;2023-02-01T13:55:30;7.90;99.90
15815;DHT22;8008;50.024;8.172;2023-02-01T13:58:06;7.90;99.90
15815;DHT22;8008;50.024;8.172;2023-02-01T14:00:38;7.90;99.90
15815;DHT22;8008;50.024;8.172;2023-02-01T14:03:14;8.00;99.90
15815;DHT22;8008;50.024;8.172;2023-02-01T14:06:18;8.00;99.90
15815;DHT22;8008;50.024;8.172;2023-02-01T14:09:31;8.00;99.90
15815;DHT22;8008;50.024;8.172;2023-02-01T14:15:19;8.10;99.90
15815;DHT22;8008;50.024;8.172;2023-02-01T14:17:49;8.10;99.90
15815;DHT22;8008;50.024;8.172;2023-02-01T14:20:44;8.20;99.90
15815;DHT22;8008;50.024;8.172;2023-02-01T14:23:21;8.30;99.90
15815;DHT22;8008;50.024;8.172;2023-02-01T14:26:16;8.40;99.90
15815;DHT22;8008;50.024;8.172;2023-02-01T14:28:58;8.40;99.90
15815;DHT22;8008;50.024;8.172;2023-02-01T14:31:48;8.40;99.90
15815;DHT22;8008;50.024;8.172;2023-02-01T14:34:29;8.40;99.90
15815;DHT22;8008;50.024;8.172;2023-02-01T14:37:00;8.50;99.90
15815;DHT22;8008;50.024;8.172;2023-02-01T14:39:31;8.50;99.90
15815;DHT22;8008;50.024;8.172;2023-02-01T14:42:05;8.40;99.90
15815;DHT22;8008;50.024;8.172;2023-02-01T14:44:41;8.20;99.90
15815;DHT22;8008;50.024;8.172;2023-02-01T14:47:32;8.20;99.90
15815;DHT22;8008;50.024;8.172;2023-02-01T14:50:23;8.20;99.90
15815;DHT22;8008;50.024;8.172;2023-02-01T14:53:04;8.10;99.90
15815;DHT22;8008;50.024;8.172;2023-02-01T14:55:39;8.10;99.90
15815;DHT22;8008;50.024;8.172;2023-02-01T14:58:15;8.10;99.90
15815;DHT22;8008;50.024;8.172;2023-02-01T15:00:51;8.20;99.90
15815;DHT22;8008;50.024;8.172;2023-02-01T15:03:36;8.30;99.90
15815;DHT22;8008;50.024;8.172;2023-02-01T15:06:19;8.40;99.90
15815;DHT22;8008;50.024;8.172;2023-02-01T15:08:48;8.50;99.90
15815;DHT22;8008;50.024;8.172;2023-02-01T15:11:16;8.40;99.90
15815;DHT22;8008;50.024;8.172;2023-02-01T15:13:48;8.30;99.90
15815;DHT22;8008;50.024;8.172;2023-02-01T15:16:20;8.30;99.90
15815;DHT22;8008;50.024;8.172;2023-02-01T15:18:50;8.40;99.90
15815;DHT22;8008;50.024;8.172;2023-02-01T15:21:20;8.40;99.90
15815;DHT22;8008;50.024;8.172;2023-02-01T15:24:10;8.40;99.90
15815;DHT22;8008;50.024;8.172;2023-02-01T15:26:38;8.50;99.90
15815;DHT22;8008;50.024;8.172;2023-02-01T15:29:11;8.50;99.90
15815;DHT22;8008;50.024;8.172;2023-02-01T15:31:41;8.60;99.90
15815;DHT22;8008;50.024;8.172;2023-02-01T15:34:11;8.60;99.90
15815;DHT22;8008;50.024;8.172;2023-02-01T15:36:39;8.40;99.90
15815;DHT22;8008;50.024;8.172;2023-02-01T15:39:21;8.40;99.90
15815;DHT22;8008;50.024;8.172;2023-02-01T15:41:54;8.30;99.90
15815;DHT22;8008;50.024;8.172;2023-02-01T15:44:34;8.30;99.90
15815;DHT22;8008;50.024;8.172;2023-02-01T15:47:12;8.30;99.90
15815;DHT22;8008;50.024;8.172;2023-02-01T15:49:44;8.30;99.90
15815;DHT22;8008;50.024;8.172;2023-02-01T15:52:21;8.20;99.90
15815;DHT22;8008;50.024;8.172;2023-02-01T15:54:51;8.20;99.90
15815;DHT22;8008;50.024;8.172;2023-02-01T15:57:22;8.20;99.90
15815;DHT22;8008;50.024;8.172;2023-02-01T15:59:58;8.20;99.90
15815;DHT22;8008;50.024;8.172;2023-02-01T16:02:42;8.20;99.90
15815;DHT22;8008;50.024;8.172;2023-02-01T16:05:31;8.20;99.90
15815;DHT22;8008;50.024;8.172;2023-02-01T16:08:04;8.20;99.90
15815;DHT22;8008;50.024;8.172;2023-02-01T16:10:39;8.10;99.90
15815;DHT22;8008;50.024;8.172;2023-02-01T16:13:07;8.10;99.90
15815;DHT22;8008;50.024;8.172;2023-02-01T16:15:35;8.10;99.90
15815;DHT22;8008;50.024;8.172;2023-02-01T16:18:04;8.10;99.90
15815;DHT22;8008;50.024;8.172;2023-02-01T16:20:33;8.10;99.90
15815;DHT22;8008;50.024;8.172;2023-02-01T16:23:02;8.10;99.90
15815;DHT22;8008;50.024;8.172;2023-02-01T16:25:30;8.10;99.90
15815;DHT22;8008;50.024;8.172;2023-02-01T16:27:58;8.10;99.90
15815;DHT22;8008;50.024;8.172;2023-02-01T16:30:26;8.10;99.90
15815;DHT22;8008;50.024;8.172;2023-02-01T16:32:55;8.00;99.90
15815;DHT22;8008;50.024;8.172;2023-02-01T16:35:30;8.10;99.90
15815;DHT22;8008;50.024;8.172;2023-02-01T16:38:04;8.00;99.90
15815;DHT22;8008;50.024;8.172;2023-02-01T16:40:35;8.00;99.90
15815;DHT22;8008;50.024;8.172;2023-02-01T16:43:11;7.90;99.90
15815;DHT22;8008;50.024;8.172;2023-02-01T16:45:39;7.90;99.90
15815;DHT22;8008;50.024;8.172;2023-02-01T16:48:07;7.90;99.90
15815;DHT22;8008;50.024;8.172;2023-02-01T16:50:35;7.90;99.90
15815;DHT22;8008;50.024;8.172;2023-02-01T16:53:04;7.80;99.90
15815;DHT22;8008;50.024;8.172;2023-02-01T16:55:32;7.80;99.90
15815;DHT22;8008;50.024;8.172;2023-02-01T16:58:01;7.80;99.90
15815;DHT22;8008;50.024;8.172;2023-02-01T17:00:30;7.80;99.90
15815;DHT22;8008;50.024;8.172;2023-02-01T17:03:00;7.80;99.90
15815;DHT22;8008;50.024;8.172;2023-02-01T17:05:27;7.80;99.90
15815;DHT22;8008;50.024;8.172;2023-02-01T17:07:57;7.80;99.90
15815;DHT22;8008;50.024;8.172;2023-02-01T17:10:31;7.80;99.90
15815;DHT22;8008;50.024;8.172;2023-02-01T17:13:00;7.80;99.90
15815;DHT22;8008;50.024;8.172;2023-02-01T17:15:32;7.80;99.90
15815;DHT22;8008;50.024;8.172;2023-02-01T17:18:02;7.80;99.90
15815;DHT22;8008;50.024;8.172;2023-02-01T17:20:32;7.70;99.90
15815;DHT22;8008;50.024;8.172;2023-02-01T17:23:01;7.70;99.90
15815;DHT22;8008;50.024;8.172;2023-02-01T17:25:30;7.70;99.90
15815;DHT22;8008;50.024;8.172;2023-02-01T17:27:58;7.70;99.90
15815;DHT22;8008;50.024;8.172;2023-02-01T17:30:26;7.70;99.90
15815;DHT22;8008;50.024;8.172;2023-02-01T17:32:54;7.70;99.90
15815;DHT22;8008;50.024;8.172;2023-02-01T17:35:24;7.70;99.90
15815;DHT22;8008;50.024;8.172;2023-02-01T17:37:54;7.70;99.90
15815;DHT22;8008;50.024;8.172;2023-02-01T17:40:22;7.60;99.90
15815;DHT22;8008;50.024;8.172;2023-02-01T17:42:51;7.60;99.90
15815;DHT22;8008;50.024;8.172;2023-02-01T17:45:38;7.60;99.90
15815;DHT22;8008;50.024;8.172;2023-02-01T17:48:09;7.60;99.90
15815;DHT22;8008;50.024;8.172;2023-02-01T17:50:37;7.50;99.90
15815;DHT22;8008;50.024;8.172;2023-02-01T17:53:06;7.50;99.90
15815;DHT22;8008;50.024;8.172;2023-02-01T17:55:37;7.40;99.90
15815;DHT22;8008;50.024;8.172;2023-02-01T17:58:07;7.40;99.90
15815;DHT22;8008;50.024;8.172;2023-02-01T18:00:35;7.40;99.90
15815;DHT22;8008;50.024;8.172;2023-02-01T18:03:05;7.40;99.90
15815;DHT22;8008;50.024;8.172;2023-02-01T18:05:37;7.40;99.90
15815;DHT22;8008;50.024;8.172;2023-02-01T18:08:06;7.40;99.90
15815;DHT22;8008;50.024;8.172;2023-02-01T18:10:36;7.40;99.90
15815;DHT22;8008;50.024;8.172;2023-02-01T18:13:05;7.50;99.90
15815;DHT22;8008;50.024;8.172;2023-02-01T18:15:33;7.50;99.90
15815;DHT22;8008;50.024;8.172;2023-02-01T18:18:01;7.50;99.90
15815;DHT22;8008;50.024;8.172;2023-02-01T18:20:29;7.40;99.90
15815;DHT22;8008;50.024;8.172;2023-02-01T18:23:01;7.40;99.90
15815;DHT22;8008;50.024;8.172;2023-02-01T18:25:30;7.40;99.90
15815;DHT22;8008;50.024;8.172;2023-02-01T18:28:03;7.40;99.90
15815;DHT22;8008;50.024;8.172;2023-02-01T18:30:33;7.30;99.90
15815;DHT22;8008;50.024;8.172;2023-02-01T18:33:02;7.30;99.90
15815;DHT22;8008;50.024;8.172;2023-02-01T18:35:31;7.40;99.90
15815;DHT22;8008;50.024;8.172;2023-02-01T18:37:59;7.40;99.90
15815;DHT22;8008;50.024;8.172;2023-02-01T18:40:30;7.30;99.90
15815;DHT22;8008;50.024;8.172;2023-02-01T18:42:59;7.30;99.90
15815;DHT22;8008;50.024;8.172;2023-02-01T18:45:30;7.30;99.90
15815;DHT22;8008;50.024;8.172;2023-02-01T18:48:00;7.30;99.90
15815;DHT22;8008;50.024;8.172;2023-02-01T18:50:29;7.30;99.90
15815;DHT22;8008;50.024;8.172;2023-02-01T18:52:59;7.40;99.90
15815;DHT22;8008;50.024;8.172;2023-02-01T18:55:28;7.40;99.90
15815;DHT22;8008;50.024;8.172;2023-02-01T18:57:58;7.40;99.90
15815;DHT22;8008;50.024;8.172;2023-02-01T19:00:27;7.40;99.90
15815;DHT22;8008;50.024;8.172;2023-02-01T19:02:55;7.30;99.90
15815;DHT22;8008;50.024;8.172;2023-02-01T19:05:25;7.40;99.90
15815;DHT22;8008;50.024;8.172;2023-02-01T19:07:53;7.40;99.90
15815;DHT22;8008;50.024;8.172;2023-02-01T19:10:22;7.30;99.90
15815;DHT22;8008;50.024;8.172;2023-02-01T19:12:51;7.40;99.90
15815;DHT22;8008;50.024;8.172;2023-02-01T19:15:21;7.30;99.90
15815;DHT22;8008;50.024;8.172;2023-02-01T19:17:50;7.30;99.90
15815;DHT22;8008;50.024;8.172;2023-02-01T19:20:21;7.20;99.90
15815;DHT22;8008;50.024;8.172;2023-02-01T19:22:51;7.20;99.90
15815;DHT22;8008;50.024;8.172;2023-02-01T19:25:21;7.10;99.90
15815;DHT22;8008;50.024;8.172;2023-02-01T19:27:50;7.00;99.90
15815;DHT22;8008;50.024;8.172;2023-02-01T19:30:20;7.00;99.90
15815;DHT22;8008;50.024;8.172;2023-02-01T19:32:49;7.10;99.90
15815;DHT22;8008;50.024;8.172;2023-02-01T19:35:20;7.10;99.90
15815;DHT22;8008;50.024;8.172;2023-02-01T19:37:50;7.10;99.90
15815;DHT22;8008;50.024;8.172;2023-02-01T19:40:19;7.10;99.90
15815;DHT22;8008;50.024;8.172;2023-02-01T19:42:47;7.10;99.90
15815;DHT22;8008;50.024;8.172;2023-02-01T19:45:16;7.10;99.90
15815;DHT22;8008;50.024;8.172;2023-02-01T19:47:44;7.10;99.90
15815;DHT22;8008;50.024;8.172;2023-02-01T19:50:16;7.10;99.90
15815;DHT22;8008;50.024;8.172;2023-02-01T19:52:46;7.10;99.90
15815;DHT22;8008;50.024;8.172;2023-02-01T19:55:17;7.10;99.90
15815;DHT22;8008;50.024;8.172;2023-02-01T19:57:45;7.10;99.90
15815;DHT22;8008;50.024;8.172;2023-02-01T20:00:13;7.00;99.90
15815;DHT22;8008;50.024;8.172;2023-02-01T20:02:42;7.00;99.90
15815;DHT22;8008;50.024;8.172;2023-02-01T20:05:10;7.00;99.90
15815;DHT22;8008;50.024;8.172;2023-02-01T20:07:38;6.90;99.90
15815;DHT22;8008;50.024;8.172;2023-02-01T20:10:08;7.00;99.90
15815;DHT22;8008;50.024;8.172;2023-02-01T20:12:41;7.00;99.90
15815;DHT22;8008;50.024;8.172;2023-02-01T20:15:11;7.00;99.90
15815;DHT22;8008;50.024;8.172;2023-02-01T20:17:39;7.00;99.90
15815;DHT22;8008;50.024;8.172;2023-02-01T20:20:07;7.00;99.90
15815;DHT22;8008;50.024;8.172;2023-02-01T20:22:36;7.00;99.90
15815;DHT22;8008;50.024;8.172;2023-02-01T20:25:04;7.00;99.90
15815;DHT22;8008;50.024;8.172;2023-02-01T20:27:32;7.00;99.90
15815;DHT22;8008;50.024;8.172;2023-02-01T20:30:02;7.00;99.90
15815;DHT22;8008;50.024;8.172;2023-02-01T20:32:30;7.00;99.90
15815;DHT22;8008;50.024;8.172;2023-02-01T20:34:58;7.00;99.90
15815;DHT22;8008;50.024;8.172;2023-02-01T20:37:25;7.00;99.90
15815;DHT22;8008;50.024;8.172;2023-02-01T20:39:53;7.00;99.90